Time;durP1;ratioP1;P1;durP2;ratioP2;P2;SDS_P1;SDS_P2;PMS_P1;PMS_P2;Temp;Humidity;BMP_temperature;BMP_pressure;BME280_temperature;BME280_humidity;BME280_pressure;Samples;Min_cycle;Max_cycle;Signal;HPM_P1;HPM_P2
2022/06/28 00:00:09;;;;;;;1999.90;999.90;;;;;;;18.66;100.00;91253.34;5069325;28;20192;-60
2022/06/28 00:02:34;;;;;;;1999.90;999.90;;;;;;;18.74;100.00;91239.47;5069026;28;20182;-60
2022/06/28 00:05:00;;;;;;;1999.90;999.90;;;;;;;18.69;100.00;91263.25;5052475;28;20177;-59
2022/06/28 00:07:26;;;;;;;1999.90;999.90;;;;;;;18.71;100.00;91260.69;5069494;28;20216;-57
2022/06/28 00:09:51;;;;;;;1999.90;999.90;;;;;;;18.73;100.00;91262.91;5069319;28;20212;-57
2022/06/28 00:12:17;;;;;;;1999.90;999.90;;;;;;;18.72;100.00;91266.97;5069280;28;20184;-57
2022/06/28 00:17:26;;;;;;;1999.90;999.90;;;;;;;18.74;100.00;91269.88;5053482;28;20218;-55
2022/06/28 00:19:52;;;;;;;1999.90;999.90;;;;;;;18.75;100.00;91277.63;5069018;28;20185;-57
2022/06/28 00:22:17;;;;;;;1999.90;999.90;;;;;;;18.80;100.00;91278.72;5068941;28;20255;-67
2022/06/28 00:24:42;;;;;;;1999.90;999.90;;;;;;;18.76;100.00;91300.50;5068926;28;20194;-58
2022/06/28 00:27:08;;;;;;;1999.90;999.90;;;;;;;18.78;100.00;91303.41;5068757;28;20178;-59
2022/06/28 00:29:33;;;;;;;1999.90;999.90;;;;;;;18.80;100.00;91303.63;5069306;28;20196;-59
2022/06/28 00:31:58;;;;;;;1999.90;999.90;;;;;;;18.75;100.00;91323.88;5052277;28;20192;-59
2022/06/28 00:34:24;;;;;;;1999.90;999.90;;;;;;;18.73;100.00;91335.50;5069040;28;20196;-59
2022/06/28 00:36:49;;;;;;;1999.90;999.90;;;;;;;18.77;100.00;91327.59;5052398;28;20201;-59
2022/06/28 00:39:15;;;;;;;1999.90;999.90;;;;;;;18.77;100.00;91346.94;5068983;28;20300;-59
2022/06/28 00:41:42;;;;;;;1999.90;999.90;;;;;;;18.78;100.00;91358.72;5069125;28;20269;-59
2022/06/28 00:44:11;;;;;;;1999.90;999.90;;;;;;;18.83;100.00;91350.22;5055700;28;20239;-56
2022/06/28 00:46:36;;;;;;;1999.90;999.90;;;;;;;18.82;100.00;91373.66;5055160;28;20272;-53
2022/06/28 00:49:03;;;;;;;1999.90;999.90;;;;;;;18.85;100.00;91357.97;5072063;28;20225;-56
2022/06/28 00:51:28;;;;;;;1999.90;999.90;;;;;;;18.82;100.00;91375.66;5055369;28;20201;-53
2022/06/28 00:53:54;;;;;;;1999.90;999.90;;;;;;;18.77;100.00;91391.16;5072282;28;20190;-55
2022/06/28 00:56:20;;;;;;;1999.90;999.90;;;;;;;18.78;100.00;91394.66;5072176;28;20202;-55
2022/06/28 00:58:46;;;;;;;1999.90;999.90;;;;;;;18.78;100.00;91405.72;5055221;28;20190;-65
2022/06/28 01:01:11;;;;;;;1999.90;999.90;;;;;;;18.80;100.00;91416.97;5056627;28;20189;-53
2022/06/28 01:03:37;;;;;;;1999.90;999.90;;;;;;;18.79;100.00;91421.00;5071974;28;20185;-66
2022/06/28 01:06:02;;;;;;;1999.90;999.90;;;;;;;18.77;100.00;91429.13;5071984;28;20198;-65
2022/06/28 01:08:28;;;;;;;1999.90;999.90;;;;;;;18.78;100.00;91441.66;5071820;28;20189;-66
2022/06/28 01:10:53;;;;;;;1999.90;999.90;;;;;;;18.83;100.00;91449.03;5072579;28;20200;-66
2022/06/28 01:13:19;;;;;;;1999.90;999.90;;;;;;;18.79;100.00;91465.22;5071503;28;20209;-66
2022/06/28 01:15:45;;;;;;;1999.90;999.90;;;;;;;18.74;100.00;91479.97;5071543;28;20205;-66
2022/06/28 01:18:11;;;;;;;1999.90;999.90;;;;;;;18.74;100.00;91502.09;5071744;28;20201;-59
2022/06/28 01:20:39;;;;;;;1999.90;999.90;;;;;;;18.72;100.00;91516.47;5054919;28;20182;-60
2022/06/28 01:23:05;;;;;;;1999.90;999.90;;;;;;;18.70;100.00;91508.00;5054937;28;20247;-59
2022/06/28 01:25:31;;;;;;;1999.90;999.90;;;;;;;18.53;100.00;91551.97;5071298;28;20194;-60
2022/06/28 01:27:56;;;;;;;1999.90;999.90;;;;;;;18.55;100.00;91551.44;5071638;28;20190;-59
2022/06/28 01:30:22;;;;;;;1999.90;999.90;;;;;;;18.54;100.00;91561.03;5071766;28;20225;-59
2022/06/28 01:32:48;;;;;;;1999.90;999.90;;;;;;;18.56;100.00;91566.72;5054867;28;20185;-59
2022/06/28 01:35:14;;;;;;;1999.90;999.90;;;;;;;18.53;100.00;91565.81;5071274;28;20181;-59
2022/06/28 01:37:39;;;;;;;1999.90;999.90;;;;;;;18.53;100.00;91571.34;5071471;28;20213;-59
2022/06/28 01:40:06;;;;;;;1999.90;999.90;;;;;;;18.56;100.00;91581.28;5071578;28;20277;-59
2022/06/28 01:42:32;;;;;;;1999.90;999.90;;;;;;;18.57;100.00;91584.78;5071412;28;20204;-60
2022/06/28 01:44:59;;;;;;;1999.90;999.90;;;;;;;18.52;100.00;91605.03;5054805;28;20249;-60
2022/06/28 01:47:26;;;;;;;1999.90;999.90;;;;;;;18.55;100.00;91603.94;5054622;28;20197;-59
2022/06/28 01:49:52;;;;;;;1999.90;999.90;;;;;;;18.60;100.00;91603.03;5071303;28;20208;-59
2022/06/28 01:52:17;;;;;;;1999.90;999.90;;;;;;;18.65;100.00;91591.09;5071122;28;20189;-59
2022/06/28 01:54:43;;;;;;;1999.90;999.90;;;;;;;18.67;100.00;91599.56;5054066;28;20283;-54
2022/06/28 01:57:09;;;;;;;1999.90;999.90;;;;;;;18.67;100.00;91607.84;5054429;28;20224;-62
2022/06/28 01:59:37;;;;;;;1999.90;999.90;;;;;;;18.64;100.00;91609.69;5054271;28;20186;-66
2022/06/28 02:02:02;;;;;;;1999.90;999.90;;;;;;;18.59;100.00;91640.25;5071113;28;20181;-65
2022/06/28 02:04:29;;;;;;;1999.90;999.90;;;;;;;18.64;100.00;91647.66;5071405;28;20304;-65
2022/06/28 02:06:55;;;;;;;1999.90;999.90;;;;;;;18.65;100.00;91649.88;5071096;28;20189;-65
2022/06/28 02:09:21;;;;;;;1999.90;999.90;;;;;;;18.64;100.00;91653.94;5054697;28;20212;-65
2022/06/28 02:11:47;;;;;;;1999.90;999.90;;;;;;;18.62;100.00;91666.81;5054268;28;20718;-65
2022/06/28 02:14:12;;;;;;;1999.90;999.90;;;;;;;18.67;100.00;91665.91;5054138;28;20255;-50
2022/06/28 02:16:38;;;;;;;1999.90;999.90;;;;;;;18.67;100.00;91663.91;5070550;28;20205;-58
2022/06/28 02:19:04;;;;;;;1999.90;999.90;;;;;;;18.63;100.00;91679.34;5053943;28;20193;-57
2022/06/28 02:21:37;;;;;;;1999.90;999.90;;;;;;;18.61;100.00;91676.41;5070379;28;20192;-57
2022/06/28 02:24:03;;;;;;;1999.90;999.90;;;;;;;18.63;100.00;91684.88;5054152;28;20182;-57
2022/06/28 02:26:29;;;;;;;1999.90;999.90;;;;;;;18.63;100.00;91690.41;5070566;28;20190;-57
2022/06/28 02:28:54;;;;;;;1999.90;999.90;;;;;;;18.59;100.00;91706.59;5070391;28;20186;-57
2022/06/28 02:31:20;;;;;;;1999.90;999.90;;;;;;;18.61;100.00;91709.56;5070568;28;20185;-52
2022/06/28 02:33:45;;;;;;;1999.90;999.90;;;;;;;18.60;100.00;91710.84;5070519;28;20221;-57
2022/06/28 02:41:39;;;;;;;1999.90;999.90;;;;;;;18.49;100.00;91734.00;5054739;28;20196;-66
2022/06/28 02:44:04;;;;;;;1999.90;999.90;;;;;;;18.47;100.00;91744.13;5053591;28;20280;-67
2022/06/28 02:46:31;;;;;;;1999.90;999.90;;;;;;;18.46;100.00;91764.72;5053763;28;20201;-66
2022/06/28 02:48:56;;;;;;;1999.90;999.90;;;;;;;18.44;100.00;91783.88;5070613;28;20240;-67
2022/06/28 02:51:22;;;;;;;1999.90;999.90;;;;;;;18.47;100.00;91775.25;5069969;28;20197;-53
2022/06/28 02:53:48;;;;;;;1999.90;999.90;;;;;;;18.48;100.00;91800.84;5070212;28;20202;-66
2022/06/28 02:56:13;;;;;;;1999.90;999.90;;;;;;;18.52;100.00;91821.34;5053398;28;20212;-66
2022/06/28 02:58:39;;;;;;;1999.90;999.90;;;;;;;18.52;100.00;91829.66;5069891;28;20213;-67
2022/06/28 03:01:04;;;;;;;1999.90;999.90;;;;;;;18.49;100.00;91843.78;5070109;28;20200;-66
2022/06/28 03:03:30;;;;;;;1999.90;999.90;;;;;;;18.47;100.00;91865.72;5070125;28;20512;-66
2022/06/28 03:05:55;;;;;;;1999.90;999.90;;;;;;;18.44;100.00;91886.13;5068977;28;20193;-66
2022/06/28 03:08:20;;;;;;;1999.90;999.90;;;;;;;18.42;100.00;91899.72;5070158;28;20190;-63
2022/06/28 03:10:46;;;;;;;1999.90;999.90;;;;;;;18.34;100.00;91902.41;5070202;28;20236;-58
2022/06/28 03:13:11;;;;;;;1999.90;999.90;;;;;;;18.37;100.00;91900.63;5069663;28;20193;-59
2022/06/28 03:15:37;;;;;;;1999.90;999.90;;;;;;;18.39;100.00;91887.00;5070314;28;20228;-58
2022/06/28 03:18:02;;;;;;;1999.90;999.90;;;;;;;18.40;100.00;91897.50;5070355;28;20198;-58
2022/06/28 03:20:28;;;;;;;1999.90;999.90;;;;;;;18.37;100.00;91901.38;5070362;28;20186;-58
2022/06/28 03:22:54;;;;;;;1999.90;999.90;;;;;;;18.42;100.00;91903.25;5069907;28;20189;-58
2022/06/28 03:25:20;;;;;;;1999.90;999.90;;;;;;;18.36;100.00;91912.94;5069557;28;20182;-58
2022/06/28 03:27:46;;;;;;;1999.90;999.90;;;;;;;18.40;100.00;91905.06;5069949;28;20220;-63
2022/06/28 03:30:11;;;;;;;1999.90;999.90;;;;;;;18.44;100.00;91905.47;5052895;28;20189;-66
2022/06/28 03:32:37;;;;;;;1999.90;999.90;;;;;;;18.45;100.00;91912.47;5069655;28;20189;-66
2022/06/28 03:35:03;;;;;;;1999.90;999.90;;;;;;;18.41;100.00;91895.50;5069518;28;20196;-66
2022/06/28 03:37:28;;;;;;;1999.90;999.90;;;;;;;18.38;100.00;91902.09;5069490;28;20240;-66
2022/06/28 03:39:53;;;;;;;1999.90;999.90;;;;;;;18.37;100.00;91906.13;5069166;28;20248;-67
2022/06/28 03:42:22;;;;;;;1999.90;999.90;;;;;;;18.29;100.00;91927.41;5053267;28;20251;-67
2022/06/28 03:44:47;;;;;;;1999.90;999.90;;;;;;;18.34;100.00;91932.03;5052776;28;20276;-58
2022/06/28 03:47:12;;;;;;;1999.90;999.90;;;;;;;18.39;100.00;91914.66;5069500;28;20214;-66
2022/06/28 03:49:38;;;;;;;1999.90;999.90;;;;;;;18.46;100.00;91908.41;5069651;28;20295;-55
2022/06/28 03:52:04;;;;;;;1999.90;999.90;;;;;;;18.52;100.00;91906.28;5053138;28;20239;-49
2022/06/28 03:54:29;;;;;;;1999.90;999.90;;;;;;;18.55;100.00;91900.44;5069662;28;20181;-54
2022/06/28 03:56:55;;;;;;;1999.90;999.90;;;;;;;18.59;100.00;91895.31;5069271;28;20221;-55
2022/06/28 03:59:20;;;;;;;1999.90;999.90;;;;;;;18.67;100.00;91906.41;5069218;28;20243;-54
2022/06/28 04:01:45;;;;;;;1999.90;999.90;;;;;;;18.66;100.00;91905.69;5052628;28;20216;-55
2022/06/28 04:04:11;;;;;;;1999.90;999.90;;;;;;;18.73;100.00;91916.03;5069124;28;20221;-64
2022/06/28 04:06:36;;;;;;;1999.90;999.90;;;;;;;18.78;100.00;91931.78;5069231;28;20235;-58
2022/06/28 04:09:02;;;;;;;1999.90;999.90;;;;;;;18.87;100.00;91930.56;5052367;28;20196;-58
2022/06/28 04:11:27;;;;;;;1999.90;999.90;;;;;;;18.93;100.00;91933.91;5068971;28;20272;-58
2022/06/28 04:13:53;;;;;;;1999.90;999.90;;;;;;;18.97;100.00;91934.31;5069075;28;20189;-59
2022/06/28 04:16:21;;;;;;;1999.90;999.90;;;;;;;19.07;100.00;91946.38;5069037;28;20208;-57
2022/06/28 04:18:47;;;;;;;1999.90;999.90;;;;;;;19.20;100.00;91951.84;5072138;28;20193;-58
2022/06/28 04:21:15;;;;;;;1999.90;999.90;;;;;;;19.37;100.00;91966.00;5056054;28;20186;-57
2022/06/28 04:23:41;;;;;;;1999.90;999.90;;;;;;;19.59;100.00;91993.09;5072338;28;20193;-58
2022/06/28 04:26:06;;;;;;;1999.90;999.90;;;;;;;19.68;100.00;92027.84;5055854;28;20186;-65
2022/06/28 04:28:32;;;;;;;1999.90;999.90;;;;;;;19.72;100.00;92078.09;5055910;28;20181;-65
2022/06/28 04:30:57;;;;;;;1999.90;999.90;;;;;;;19.68;100.00;92133.84;5072426;28;20217;-65
2022/06/28 04:33:23;;;;;;;1999.90;999.90;;;;;;;19.59;100.00;92181.38;5072229;28;20189;-65
2022/06/28 04:35:49;;;;;;;1999.90;999.90;;;;;;;19.62;100.00;92230.13;5072415;28;20201;-65
2022/06/28 04:38:14;;;;;;;1999.90;999.90;;;;;;;19.68;100.00;92272.28;5072010;28;20224;-66
2022/06/28 04:40:40;;;;;;;1999.90;999.90;;;;;;;19.97;100.00;92293.28;5071967;28;20205;-54
2022/06/28 04:43:05;;;;;;;1999.90;999.90;;;;;;;20.43;100.00;92316.66;5072311;28;20232;-69
2022/06/28 04:45:31;;;;;;;1999.90;999.90;;;;;;;20.51;100.00;92420.81;5055491;28;20182;-66
2022/06/28 04:47:56;;;;;;;1999.90;999.90;;;;;;;20.70;100.00;92518.47;5055538;28;20190;-68
2022/06/28 04:50:22;;;;;;;1999.90;999.90;;;;;;;20.78;100.00;92637.81;5072083;28;20289;-66
2022/06/28 04:52:47;;;;;;;1999.90;999.90;;;;;;;20.92;100.00;92756.63;5071457;28;20224;-67
2022/06/28 04:55:12;;;;;;;1999.90;999.90;;;;;;;21.07;100.00;92851.22;5055483;28;20216;-67
2022/06/28 04:57:38;;;;;;;1999.90;999.90;;;;;;;20.99;100.00;92972.50;5071786;28;20213;-55
2022/06/28 05:00:04;;;;;;;1999.90;999.90;;;;;;;21.06;100.00;93024.59;5055127;28;20178;-58
2022/06/28 05:02:29;;;;;;;1999.90;999.90;;;;;;;21.11;100.00;93075.75;5054690;28;20186;-58
2022/06/28 05:04:55;;;;;;;1999.90;999.90;;;;;;;21.02;100.00;93137.94;5054814;28;20320;-58
2022/06/28 05:07:20;;;;;;;1999.90;999.90;;;;;;;20.95;100.00;93188.53;5072041;28;20182;-58
2022/06/28 05:09:45;;;;;;;1999.90;999.90;;;;;;;21.10;100.00;93166.63;5071734;28;20217;-58
2022/06/28 05:12:11;;;;;;;1999.90;999.90;;;;;;;21.21;100.00;93208.13;5055561;28;20210;-58
2022/06/28 05:14:36;;;;;;;1999.90;999.90;;;;;;;21.37;100.00;93198.06;5071603;28;20193;-58
2022/06/28 05:17:02;;;;;;;1999.90;999.90;;;;;;;21.51;100.00;93233.72;5071778;28;20211;-66
2022/06/28 05:19:30;;;;;;;1999.90;999.90;;;;;;;21.64;100.00;93317.13;5072187;28;20334;-57
2022/06/28 05:21:55;;;;;;;1999.90;999.90;;;;;;;21.84;100.00;93394.50;5055021;28;20182;-59
2022/06/28 05:24:20;;;;;;;1999.90;999.90;;;;;;;22.38;100.00;93445.09;5071191;28;20211;-58
2022/06/28 05:26:46;;;;;;;1999.90;999.90;;;;;;;23.27;100.00;93538.50;5071407;28;20239;-56
2022/06/28 05:29:11;;;;;;;1999.90;999.90;;;;;;;24.02;100.00;93705.13;5054667;28;20188;-57
2022/06/28 05:31:37;;;;;;;1999.90;999.90;;;;;;;24.13;100.00;93932.97;5071677;28;20210;-58
2022/06/28 05:34:02;;;;;;;1999.90;999.90;;;;;;;24.65;100.00;93994.75;5070641;28;20186;-57
2022/06/28 05:36:28;;;;;;;1999.90;999.90;;;;;;;25.25;100.00;94040.63;5054344;28;20197;-58
2022/06/28 05:38:53;;;;;;;1999.90;999.90;;;;;;;25.46;100.00;94167.44;5054393;28;20212;-65
2022/06/28 05:41:19;;;;;;;1999.90;999.90;;;;;;;26.22;100.00;94285.13;5071565;28;20186;-65
2022/06/28 05:43:44;;;;;;;1999.90;999.90;;;;;;;26.84;100.00;94449.00;5071037;28;20182;-65
2022/06/28 05:46:10;;;;;;;1999.90;999.90;;;;;;;26.79;100.00;94553.53;5071298;28;20189;-65
2022/06/28 05:48:36;;;;;;;1999.90;999.90;;;;;;;26.17;100.00;94612.78;5070801;28;20177;-66
2022/06/28 05:51:02;;;;;;;1999.90;999.90;;;;;;;26.05;100.00;94533.78;5070862;28;20213;-66
2022/06/28 05:53:27;;;;;;;1999.90;999.90;;;;;;;25.78;100.00;94540.34;5054156;28;20296;-58
2022/06/28 05:55:53;;;;;;;1999.90;999.90;;;;;;;25.16;100.00;94496.63;5070999;28;20277;-65
2022/06/28 05:58:18;;;;;;;1999.90;999.90;;;;;;;24.68;100.00;94430.16;5070760;28;20178;-67
2022/06/28 06:00:43;;;;;;;1999.90;999.90;;;;;;;23.26;100.00;94454.50;5071240;28;20189;-65
2022/06/28 06:03:09;;;;;;;1999.90;999.90;;;;;;;23.16;100.00;94341.03;5054297;28;20188;-66
2022/06/28 06:05:34;;;;;;;1999.90;999.90;;;;;;;22.94;100.00;94272.19;5070979;28;20205;-65
2022/06/28 06:07:59;;;;;;;1999.90;999.90;;;;;;;22.69;100.00;94253.00;5070668;28;20235;-65
2022/06/28 06:10:25;;;;;;;1999.90;999.90;;;;;;;22.83;100.00;94238.06;5070948;28;20186;-65
2022/06/28 06:12:50;;;;;;;1999.90;999.90;;;;;;;23.00;100.00;94225.56;5070442;28;20188;-61
2022/06/28 06:15:16;;;;;;;1999.90;999.90;;;;;;;23.83;100.00;94186.13;5070468;28;20209;-63
2022/06/28 06:17:41;;;;;;;1999.90;999.90;;;;;;;25.52;100.00;94302.34;5070064;28;20210;-63
2022/06/28 06:20:08;;;;;;;1999.90;999.90;;;;;;;27.03;100.00;94519.84;5070244;28;20193;-68
2022/06/28 06:22:34;;;;;;;1999.90;999.90;;;;;;;27.88;100.00;94648.69;5053906;28;20201;-67
2022/06/28 06:25:00;;;;;;;1999.90;999.90;;;;;;;29.07;100.00;94825.59;5070482;28;20196;-68
2022/06/28 06:27:25;;;;;;;1999.90;999.90;;;;;;;30.11;100.00;95298.28;5070936;28;20196;-68
2022/06/28 06:29:51;;;;;;;1999.90;999.90;;;;;;;29.58;100.00;95397.78;5070283;28;20182;-58
2022/06/28 06:32:16;;;;;;;1999.90;999.90;;;;;;;28.72;100.00;95440.94;5070235;28;20182;-59
2022/06/28 06:34:41;;;;;;;1999.90;999.90;;;;;;;28.57;100.00;95452.53;5070340;28;20223;-58
2022/06/28 06:37:07;;;;;;;1999.90;999.90;;;;;;;28.39;100.00;95509.34;5070416;28;20212;-58
2022/06/28 06:39:32;;;;;;;1999.90;999.90;;;;;;;27.49;100.00;95521.25;5070486;28;20198;-58
2022/06/28 06:41:58;;;;;;;1999.90;999.90;;;;;;;28.06;100.00;95506.63;5070138;28;20268;-58
2022/06/28 06:44:25;;;;;;;1999.90;999.90;;;;;;;27.63;100.00;95516.63;5053327;28;20274;-58
2022/06/28 06:46:50;;;;;;;1999.90;999.90;;;;;;;27.13;100.00;95541.84;5070390;28;20278;-58
2022/06/28 06:49:17;;;;;;;1999.90;999.90;;;;;;;27.46;100.00;95547.53;5053577;28;20209;-59
2022/06/28 06:51:44;;;;;;;1999.90;999.90;;;;;;;27.92;100.00;95583.53;5069962;28;20192;-55
2022/06/28 06:54:11;;;;;;;1999.90;999.90;;;;;;;26.93;100.00;95535.69;5053189;28;20186;-48
2022/06/28 06:56:38;;;;;;;1999.90;999.90;;;;;;;28.68;100.00;95569.81;5070306;28;20212;-52
2022/06/28 06:59:04;;;;;;;1999.90;999.90;;;;;;;27.95;100.00;95572.03;5069910;28;20192;-52
2022/06/28 07:01:32;;;;;;;1999.90;999.90;;;;;;;26.87;100.00;95524.47;5070597;28;20269;-51
2022/06/28 07:03:58;;;;;;;1999.90;999.90;;;;;;;26.74;100.00;95518.59;5070609;28;20196;-53
2022/06/28 07:06:24;;;;;;;1999.90;999.90;;;;;;;27.03;100.00;95526.56;5053316;28;20185;-51
2022/06/28 07:08:49;;;;;;;1999.90;999.90;;;;;;;27.97;100.00;95544.19;5070108;28;20206;-68
2022/06/28 07:11:14;;;;;;;1999.90;999.90;;;;;;;28.18;100.00;95539.81;5069964;28;20182;-54
2022/06/28 07:13:40;;;;;;;1999.90;999.90;;;;;;;28.87;98.87;95604.53;5069388;28;20194;-54
2022/06/28 07:16:06;;;;;;;1999.90;999.90;;;;;;;26.29;100.00;95516.88;5069496;28;20273;-54
2022/06/28 07:18:31;;;;;;;1999.90;999.90;;;;;;;25.50;100.00;95467.81;5069810;28;20208;-54
2022/06/28 07:21:00;;;;;;;1999.90;999.90;;;;;;;25.42;100.00;95449.94;5069866;28;20181;-54
2022/06/28 07:23:25;;;;;;;1999.90;999.90;;;;;;;25.41;100.00;95454.75;5069654;28;20185;-56
2022/06/28 07:25:51;;;;;;;1999.90;999.90;;;;;;;24.97;100.00;95429.25;5069744;28;20213;-53
2022/06/28 07:28:17;;;;;;;1999.90;999.90;;;;;;;25.31;100.00;95453.41;5069533;28;20186;-59
2022/06/28 07:30:43;;;;;;;1999.90;999.90;;;;;;;25.04;100.00;95439.97;5069315;28;20315;-57
2022/06/28 07:33:09;;;;;;;1999.90;999.90;;;;;;;25.24;100.00;95432.25;5069514;28;20185;-57
2022/06/28 07:35:35;;;;;;;1999.90;999.90;;;;;;;26.67;100.00;95499.47;5052654;28;20217;-58
2022/06/28 07:38:01;;;;;;;1999.90;999.90;;;;;;;28.20;100.00;95593.47;5069367;28;20229;-57
2022/06/28 07:40:26;;;;;;;1999.90;999.90;;;;;;;27.05;100.00;95591.31;5052812;28;20182;-56
2022/06/28 07:42:51;;;;;;;1999.90;999.90;;;;;;;26.89;100.00;95578.03;5069335;28;20184;-52
2022/06/28 07:45:17;;;;;;;1999.90;999.90;;;;;;;28.76;100.00;95647.50;5069564;28;20182;-57
2022/06/28 07:47:47;;;;;;;1999.90;999.90;;;;;;;29.37;97.69;95709.97;5069386;28;20217;-57
2022/06/28 07:53:02;;;;;;;1999.90;999.90;;;;;;;28.45;89.71;95731.41;5053232;28;20193;-57
2022/06/28 07:55:27;;;;;;;1999.90;999.90;;;;;;;29.62;89.02;95742.66;5052683;28;20193;-57
2022/06/28 07:57:53;;;;;;;1999.90;999.90;;;;;;;26.83;100.00;95686.56;5069198;28;20210;-57
2022/06/28 08:00:21;;;;;;;1999.90;999.90;;;;;;;26.67;100.00;95667.66;5069340;28;20181;-57
2022/06/28 08:02:46;;;;;;;1999.90;999.90;;;;;;;26.75;100.00;95674.31;5069490;28;20215;-68
2022/06/28 08:05:12;;;;;;;1999.90;999.90;;;;;;;27.10;100.00;95655.06;5069128;28;20181;-65
2022/06/28 08:07:37;;;;;;;1999.90;999.90;;;;;;;28.78;95.54;95701.19;5069574;28;20193;-65
2022/06/28 08:10:03;;;;;;;1999.90;999.90;;;;;;;30.10;84.00;95725.16;5068885;28;20204;-66
2022/06/28 08:12:28;;;;;;;1999.90;999.90;;;;;;;29.10;89.28;95710.09;5069138;28;20197;-66
2022/06/28 08:14:53;;;;;;;1999.90;999.90;;;;;;;29.64;89.19;95699.88;5069615;28;20264;-65
2022/06/28 08:17:19;;;;;;;1999.90;999.90;;;;;;;31.13;79.80;95727.59;5068752;28;20212;-65
2022/06/28 08:19:45;;;;;;;1999.90;999.90;;;;;;;32.15;72.30;95739.38;5069169;28;20185;-53
2022/06/28 08:22:10;;;;;;;1999.90;999.90;;;;;;;29.59;76.64;95740.09;5069379;28;20178;-56
2022/06/28 08:24:38;;;;;;;1999.90;999.90;;;;;;;29.96;80.15;95731.91;5068917;28;20210;-56
2022/06/28 08:27:04;;;;;;;1999.90;999.90;;;;;;;28.52;86.25;95714.81;5069018;28;20266;-57
2022/06/28 08:29:31;;;;;;;1999.90;999.90;;;;;;;26.95;98.70;95654.50;5052346;28;20178;-57
2022/06/28 08:31:57;;;;;;;1999.90;999.90;;;;;;;27.17;99.46;95653.81;5068737;28;20278;-56
2022/06/28 08:34:22;;;;;;;1999.90;999.90;;;;;;;27.21;99.72;95643.91;5068750;28;20185;-56
2022/06/28 08:36:48;;;;;;;1999.90;999.90;;;;;;;27.84;89.23;95664.72;5068819;28;20239;-55
2022/06/28 08:39:13;;;;;;;1999.90;999.90;;;;;;;26.40;100.00;95631.03;5052898;28;20209;-49
2022/06/28 08:41:41;;;;;;;1999.90;999.90;;;;;;;29.07;87.16;95668.91;5069235;28;20178;-59
2022/06/28 08:44:06;;;;;;;1999.90;999.90;;;;;;;29.85;79.22;95692.56;5052549;28;20243;-58
2022/06/28 08:46:34;;;;;;;1999.90;999.90;;;;;;;29.22;77.51;95698.25;5069081;28;20190;-58
2022/06/28 08:49:13;;;;;;;1999.90;999.90;;;;;;;29.67;78.05;95688.31;5051957;28;20190;-58
2022/06/28 08:51:38;;;;;;;1999.90;999.90;;;;;;;28.48;84.88;95668.53;5068696;28;20205;-60
2022/06/28 08:54:04;;;;;;;1999.90;999.90;;;;;;;27.88;89.20;95656.81;5068852;28;20182;-58
2022/06/28 08:56:30;;;;;;;1999.90;999.90;;;;;;;28.12;89.29;95659.13;5068546;28;20206;-66
2022/06/28 08:58:59;;;;;;;1999.90;999.90;;;;;;;27.66;92.96;95662.38;5051814;28;20184;-53
2022/06/28 09:01:25;;;;;;;1999.90;999.90;;;;;;;27.92;92.36;95662.94;5051997;28;20189;-68
2022/06/28 09:03:53;;;;;;;1999.90;999.90;;;;;;;29.24;80.68;95689.31;5052249;28;20182;-68
2022/06/28 09:06:21;;;;;;;1999.90;999.90;;;;;;;29.08;82.93;95676.84;5055055;28;20212;-70
2022/06/28 09:08:46;;;;;;;1999.90;999.90;;;;;;;29.22;83.27;95680.59;5072115;28;20182;-69
2022/06/28 09:11:12;;;;;;;1999.90;999.90;;;;;;;28.75;80.15;95678.94;5072618;28;20185;-67
2022/06/28 09:13:40;;;;;;;1999.90;999.90;;;;;;;31.10;74.12;95700.44;5072313;28;20214;-68
2022/06/28 09:16:05;;;;;;;1999.90;999.90;;;;;;;29.94;72.71;95717.59;5055638;28;20206;-53
2022/06/28 09:18:34;;;;;;;1999.90;999.90;;;;;;;29.08;74.98;95699.34;5054843;28;20197;-57
2022/06/28 09:20:59;;;;;;;1999.90;999.90;;;;;;;29.15;79.41;95698.03;5071958;28;20178;-60
2022/06/28 09:23:34;;;;;;;1999.90;999.90;;;;;;;28.18;77.58;95705.59;5072088;28;20189;-60
2022/06/28 09:26:06;;;;;;;1999.90;999.90;;;;;;;26.96;86.30;95678.50;5055371;28;20195;-55
2022/06/28 09:28:34;;;;;;;1999.90;999.90;;;;;;;25.45;97.35;95664.34;5071672;28;20182;-58
2022/06/28 09:31:17;;;;;;;1999.90;999.90;;;;;;;25.77;100.00;95633.09;5071709;28;20182;-59
2022/06/28 09:33:59;;;;;;;1999.90;999.90;;;;;;;26.86;93.64;95639.94;5071442;28;20200;-57
2022/06/28 09:36:25;;;;;;;1999.90;999.90;;;;;;;27.45;83.72;95666.69;5071459;28;20212;-57
2022/06/28 09:38:50;;;;;;;1999.90;999.90;;;;;;;26.52;96.65;95627.78;5070950;28;20213;-71
2022/06/28 09:41:23;;;;;;;1999.90;999.90;;;;;;;27.65;93.26;95638.38;5071099;28;20181;-69
2022/06/28 09:44:00;;;;;;;1999.90;999.90;;;;;;;27.37;94.26;95650.84;5071391;28;20194;-70
2022/06/28 09:46:28;;;;;;;1999.90;999.90;;;;;;;27.05;96.47;95624.19;5071709;28;20189;-71
2022/06/28 09:49:04;;;;;;;1999.90;999.90;;;;;;;26.74;99.43;95610.34;5071182;28;20190;-70
2022/06/28 09:51:32;;;;;;;1999.90;999.90;;;;;;;26.60;96.56;95634.47;5054302;28;20189;-58
2022/06/28 09:54:04;;;;;;;1999.90;999.90;;;;;;;27.06;98.45;95620.13;5070851;28;20186;-69
2022/06/28 09:56:34;;;;;;;1999.90;999.90;;;;;;;25.89;100.00;95583.56;5055038;28;20206;-63
2022/06/28 09:59:00;;;;;;;1999.90;999.90;;;;;;;26.29;100.00;95569.34;5071246;28;20178;-62
2022/06/28 10:01:26;;;;;;;1999.90;999.90;;;;;;;24.69;100.00;95542.81;5053965;28;20265;-62
2022/06/28 10:03:52;;;;;;;1999.90;999.90;;;;;;;24.98;100.00;95517.41;5071594;28;20173;-62
2022/06/28 10:06:19;;;;;;;1999.90;999.90;;;;;;;24.91;100.00;95517.88;5071170;28;20190;-62
2022/06/28 10:08:45;;;;;;;1999.90;999.90;;;;;;;24.94;100.00;95508.50;5054781;28;20185;-63
2022/06/28 10:11:11;;;;;;;1999.90;999.90;;;;;;;24.75;100.00;95510.09;5054439;28;20243;-69
2022/06/28 10:16:45;;;;;;;1999.90;999.90;;;;;;;23.74;100.00;95463.94;5054978;28;20260;-62
2022/06/28 10:19:11;;;;;;;1999.90;999.90;;;;;;;24.71;100.00;95437.69;5070651;28;20185;-62
2022/06/28 10:21:45;;;;;;;1999.90;999.90;;;;;;;24.29;100.00;95437.47;5053843;28;20190;-62
2022/06/28 10:24:12;;;;;;;1999.90;999.90;;;;;;;24.47;100.00;95436.41;5054323;28;20190;-62
2022/06/28 10:26:38;;;;;;;1999.90;999.90;;;;;;;24.02;100.00;95468.63;5070630;28;20194;-63
2022/06/28 10:29:07;;;;;;;1999.90;999.90;;;;;;;24.20;100.00;95457.16;5071238;28;20193;-58
2022/06/28 10:31:35;;;;;;;1999.90;999.90;;;;;;;24.32;100.00;95430.13;5054070;28;20298;-72
2022/06/28 10:34:02;;;;;;;1999.90;999.90;;;;;;;23.49;100.00;95443.03;5054181;28;20273;-55
2022/06/28 10:36:57;;;;;;;1999.90;999.90;;;;;;;24.20;100.00;95464.78;5053693;28;20226;-56
2022/06/28 10:39:24;;;;;;;1999.90;999.90;;;;;;;24.28;100.00;95441.53;5053705;28;20245;-53
2022/06/28 10:42:05;;;;;;;1999.90;999.90;;;;;;;23.76;100.00;95394.44;5070471;28;20193;-56
2022/06/28 10:44:31;;;;;;;1999.90;999.90;;;;;;;23.56;100.00;95381.25;5070911;28;20181;-55
2022/06/28 10:46:59;;;;;;;1999.90;999.90;;;;;;;23.57;100.00;95331.84;5070336;28;20201;-48
2022/06/28 10:49:24;;;;;;;1999.90;999.90;;;;;;;23.53;100.00;95331.28;5070951;28;20190;-53
2022/06/28 10:52:14;;;;;;;1999.90;999.90;;;;;;;23.72;100.00;95332.53;5070339;28;20201;-66
2022/06/28 10:55:03;;;;;;;1999.90;999.90;;;;;;;23.67;100.00;95313.72;5054224;28;20186;-64
2022/06/28 10:57:41;;;;;;;1999.90;999.90;;;;;;;24.01;100.00;95304.44;5070087;28;20220;-65